Time;durP1;ratioP1;P1;durP2;ratioP2;P2;SDS_P1;SDS_P2;PMS_P1;PMS_P2;Temp;Humidity;BMP_temperature;BMP_pressure;BME280_temperature;BME280_humidity;BME280_pressure;Samples;Min_cycle;Max_cycle;Signal;HPM_P1;HPM_P2
2023/10/16 00:01:31;;;;;;;11.30;0.93;;;5.80;99.90;;;;;;4982548;28;20061;-78
2023/10/16 00:03:57;;;;;;;17.35;2.05;;;5.80;99.90;;;;;;4986424;28;20080;-80
2023/10/16 00:06:23;;;;;;;7.45;1.20;;;6.30;99.90;;;;;;4985396;28;20049;-79
2023/10/16 00:08:53;;;;;;;11.05;0.80;;;6.00;99.90;;;;;;4997983;28;20290;-81
2023/10/16 00:11:23;;;;;;;7.13;0.95;;;5.90;99.90;;;;;;5000481;28;20053;-78
2023/10/16 00:14:25;;;;;;;9.18;0.70;;;6.00;99.90;;;;;;4994215;28;20049;-79
2023/10/16 00:16:51;;;;;;;6.65;0.90;;;6.00;99.90;;;;;;4939984;28;20165;-81
2023/10/16 00:19:18;;;;;;;4.90;0.75;;;5.90;99.90;;;;;;4956306;28;20473;-80
2023/10/16 00:21:45;;;;;;;3.38;0.50;;;6.00;99.90;;;;;;4939319;28;20179;-82
2023/10/16 00:24:16;;;;;;;10.82;1.05;;;6.70;99.90;;;;;;4956042;28;20066;-82
2023/10/16 00:26:50;;;;;;;8.68;0.85;;;3.30;99.90;;;;;;4957018;28;20058;-81
2023/10/16 00:29:32;;;;;;;9.00;0.90;;;6.00;99.90;;;;;;4957159;28;20128;-82
2023/10/16 00:32:00;;;;;;;7.25;0.68;;;6.00;99.90;;;;;;4956578;28;20138;-80
2023/10/16 00:34:25;;;;;;;6.97;0.90;;;6.00;99.90;;;;;;4955868;28;20125;-82
2023/10/16 00:36:54;;;;;;;8.02;0.98;;;4.60;99.90;;;;;;4954055;28;20061;-82
2023/10/16 00:39:20;;;;;;;7.68;0.60;;;6.10;99.90;;;;;;4948000;28;20051;-80
2023/10/16 00:41:49;;;;;;;5.40;0.75;;;6.20;99.90;;;;;;4928700;28;20407;-81
2023/10/16 00:44:16;;;;;;;11.55;0.63;;;6.20;99.90;;;;;;4952188;28;20057;-81
2023/10/16 00:46:45;;;;;;;5.20;0.40;;;6.20;99.90;;;;;;4941971;28;20051;-82
2023/10/16 00:49:14;;;;;;;7.68;1.30;;;8.80;99.90;;;;;;4984196;28;20045;-81
2023/10/16 00:51:45;;;;;;;4.68;0.60;;;6.30;99.90;;;;;;4986147;28;20068;-80
2023/10/16 00:54:30;;;;;;;7.00;0.80;;;6.60;99.90;;;;;;4988367;28;20053;-80
2023/10/16 00:56:57;;;;;;;3.78;0.68;;;6.40;99.90;;;;;;4988401;28;20067;-80
2023/10/16 00:59:24;;;;;;;8.00;0.90;;;6.40;99.90;;;;;;4984070;28;20195;-80
2023/10/16 01:02:14;;;;;;;6.70;0.88;;;6.40;99.90;;;;;;4997188;28;20524;-83
2023/10/16 01:04:40;;;;;;;18.55;2.85;;;6.30;99.90;;;;;;4977297;28;20057;-79
2023/10/16 01:07:07;;;;;;;6.43;0.73;;;6.50;99.90;;;;;;4986103;28;20050;-83
2023/10/16 01:09:35;;;;;;;8.98;2.10;;;6.40;99.90;;;;;;4992143;28;20132;-83
2023/10/16 01:12:07;;;;;;;5.10;0.90;;;6.40;99.90;;;;;;4977179;28;20054;-81
2023/10/16 01:14:35;;;;;;;;;;;6.40;99.90;;;;;;4978412;28;20058;-83
2023/10/16 01:17:08;;;;;;;3.10;0.73;;;6.30;99.90;;;;;;4978468;28;19926;-82
2023/10/16 01:19:36;;;;;;;11.48;0.70;;;6.30;99.90;;;;;;4984495;28;20064;-83
2023/10/16 01:22:03;;;;;;;6.70;0.60;;;8.60;99.90;;;;;;4978072;28;20057;-79
2023/10/16 01:24:29;;;;;;;7.25;0.63;;;6.20;99.90;;;;;;4988288;28;20057;-83
2023/10/16 01:27:06;;;;;;;4.30;0.75;;;6.20;99.90;;;;;;4981720;28;20519;-80
2023/10/16 01:29:33;;;;;;;14.80;0.60;;;6.10;99.90;;;;;;4992337;28;20151;-82
2023/10/16 01:31:59;;;;;;;4.97;0.50;;;6.10;99.90;;;;;;4988728;28;20045;-82
2023/10/16 01:34:25;;;;;;;6.38;0.63;;;6.10;99.90;;;;;;5017170;28;20859;-81
2023/10/16 01:36:51;;;;;;;6.38;0.75;;;6.20;99.90;;;;;;5000869;28;20057;-78
2023/10/16 01:42:11;;;;;;;5.63;0.60;;;6.10;99.90;;;;;;4986628;28;20045;-81
2023/10/16 01:44:57;;;;;;;7.07;0.70;;;6.10;99.90;;;;;;4995152;28;20111;-81
2023/10/16 01:47:24;;;;;;;8.98;1.15;;;3.70;99.90;;;;;;4980792;28;20091;-82
2023/10/16 01:49:50;;;;;;;4.15;0.63;;;6.10;99.90;;;;;;4966194;28;20093;-84
2023/10/16 01:52:16;;;;;;;8.88;0.95;;;3.80;99.90;;;;;;4961425;28;20601;-78
2023/10/16 01:54:46;;;;;;;6.40;0.90;;;8.40;99.90;;;;;;4979136;28;20053;-82
2023/10/16 01:57:12;;;;;;;4.03;0.80;;;6.30;99.90;;;;;;4995722;28;20057;-81
2023/10/16 01:59:41;;;;;;;8.80;0.73;;;3.50;99.90;;;;;;4977549;28;20050;-83
2023/10/16 02:02:09;;;;;;;9.55;1.20;;;6.20;99.90;;;;;;4973576;28;20375;-82
2023/10/16 02:04:37;;;;;;;14.73;0.73;;;6.00;99.90;;;;;;4964935;28;20659;-80
2023/10/16 02:07:03;;;;;;;8.00;0.73;;;6.10;99.90;;;;;;4980783;28;20057;-82
2023/10/16 02:09:31;;;;;;;5.07;0.90;;;6.10;99.90;;;;;;4965904;28;20081;-82
2023/10/16 02:12:01;;;;;;;6.60;0.90;;;6.60;99.90;;;;;;4958677;28;20050;-83
2023/10/16 02:14:27;;;;;;;6.03;1.25;;;6.70;99.90;;;;;;4943468;28;20119;-81
2023/10/16 02:16:53;;;;;;;9.27;1.40;;;6.20;99.90;;;;;;4980855;28;20057;-81
2023/10/16 02:19:19;;;;;;;5.45;0.63;;;6.30;99.90;;;;;;4992368;28;20064;-80
2023/10/16 02:21:44;;;;;;;6.60;0.68;;;8.70;99.90;;;;;;4987256;28;20050;-81
2023/10/16 02:24:11;;;;;;;6.85;0.90;;;8.30;99.90;;;;;;5016788;28;20053;-82
2023/10/16 02:26:56;;;;;;;6.38;0.73;;;6.30;99.90;;;;;;5000059;28;20045;-82
2023/10/16 02:29:23;;;;;;;11.35;0.80;;;6.40;99.90;;;;;;4973914;28;20058;-78
2023/10/16 02:31:52;;;;;;;4.60;0.40;;;6.40;99.90;;;;;;4996036;28;20053;-82
2023/10/16 02:34:22;;;;;;;4.93;1.00;;;7.70;99.90;;;;;;4994308;28;20262;-80
2023/10/16 02:36:54;;;;;;;6.40;0.93;;;6.00;99.90;;;;;;4987950;28;20069;-85
2023/10/16 02:39:35;;;;;;;7.85;0.77;;;5.90;99.90;;;;;;4994806;28;20132;-80
2023/10/16 02:42:06;;;;;;;6.65;0.47;;;5.80;99.90;;;;;;4993637;28;20133;-85
2023/10/16 02:44:33;;;;;;;5.43;0.60;;;5.70;99.90;;;;;;4990275;28;20049;-83
2023/10/16 02:46:59;;;;;;;6.82;1.38;;;6.90;99.90;;;;;;4988441;28;20079;-84
2023/10/16 02:49:28;;;;;;;5.72;0.68;;;5.50;99.90;;;;;;4983850;28;20046;-85
2023/10/16 02:51:54;;;;;;;5.68;0.50;;;6.10;99.90;;;;;;4991740;28;20122;-80
2023/10/16 02:54:20;;;;;;;9.63;1.02;;;5.30;99.90;;;;;;4991860;28;20072;-81
2023/10/16 02:56:45;;;;;;;4.05;0.35;;;6.00;99.90;;;;;;4987513;28;20088;-81
2023/10/16 02:59:11;;;;;;;6.45;0.40;;;5.30;99.90;;;;;;4974233;28;20493;-85
2023/10/16 03:01:38;;;;;;;5.97;0.60;;;8.00;99.90;;;;;;4988717;28;20057;-86
2023/10/16 03:04:05;;;;;;;4.03;0.68;;;5.40;99.90;;;;;;5001730;28;20054;-85
2023/10/16 03:06:39;;;;;;;8.15;0.93;;;5.50;99.90;;;;;;4996979;28;20169;-86
2023/10/16 03:09:28;;;;;;;8.20;0.82;;;5.60;99.90;;;;;;4998923;28;20081;-82
2023/10/16 03:12:04;;;;;;;8.02;0.90;;;5.60;99.90;;;;;;4999692;28;20084;-85
2023/10/16 03:14:36;;;;;;;11.48;0.90;;;7.70;99.90;;;;;;4990428;28;20057;-85
2023/10/16 03:17:08;;;;;;;7.43;0.67;;;8.10;99.90;;;;;;4985518;28;20544;-81
2023/10/16 03:19:35;;;;;;;8.52;0.82;;;7.80;99.90;;;;;;4983718;28;20058;-88
2023/10/16 03:22:04;;;;;;;5.60;0.73;;;6.10;99.90;;;;;;4993556;28;20128;-87
2023/10/16 03:24:30;;;;;;;6.65;0.75;;;7.00;99.90;;;;;;4989325;28;20834;-82
2023/10/16 03:27:08;;;;;;;8.25;0.60;;;5.50;99.90;;;;;;4985692;28;20053;-83
2023/10/16 03:29:33;;;;;;;8.93;0.70;;;4.80;99.90;;;;;;4990207;28;20076;-85
2023/10/16 03:31:59;;;;;;;5.75;1.00;;;6.70;99.90;;;;;;4989460;28;20573;-86
2023/10/16 03:34:25;;;;;;;7.65;1.95;;;5.60;99.90;;;;;;4998287;28;20061;-82
2023/10/16 03:36:57;;;;;;;5.38;1.05;;;7.50;99.90;;;;;;4994123;28;20532;-81
2023/10/16 03:39:23;;;;;;;3.97;0.98;;;5.70;99.90;;;;;;4981820;28;20057;-84
2023/10/16 03:41:49;;;;;;;7.60;0.90;;;5.90;99.90;;;;;;4984608;28;20049;-85
2023/10/16 03:44:17;;;;;;;8.43;1.08;;;7.70;99.90;;;;;;4994619;28;20057;-86
2023/10/16 03:46:44;;;;;;;6.55;1.58;;;5.80;99.90;;;;;;4990583;28;20140;-83
2023/10/16 03:49:12;;;;;;;12.98;2.55;;;3.30;99.90;;;;;;5001766;28;20048;-85
2023/10/16 03:51:38;;;;;;;11.70;2.78;;;6.20;99.90;;;;;;4990676;28;20504;-84
2023/10/16 03:54:05;;;;;;;10.32;2.72;;;6.10;99.90;;;;;;4998227;28;20136;-83
2023/10/16 03:56:31;;;;;;;6.65;2.60;;;6.20;99.90;;;;;;4998145;28;20794;-83
2023/10/16 03:58:57;;;;;;;15.27;2.92;;;7.70;99.90;;;;;;5002779;28;20092;-85
2023/10/16 04:01:27;;;;;;;11.07;2.38;;;6.60;99.90;;;;;;4992190;28;20135;-83
2023/10/16 04:04:03;;;;;;;11.77;2.80;;;6.40;99.90;;;;;;4999772;28;20057;-84
2023/10/16 04:06:30;;;;;;;8.70;3.08;;;8.50;99.90;;;;;;4994967;28;20099;-85
2023/10/16 04:08:58;;;;;;;10.02;2.40;;;8.30;99.90;;;;;;4980914;28;20484;-82
2023/10/16 04:11:24;;;;;;;10.25;2.33;;;6.40;99.90;;;;;;4989681;28;20740;-88
2023/10/16 04:13:52;;;;;;;8.73;2.35;;;9.10;99.90;;;;;;4993001;28;20405;-85
2023/10/16 04:21:43;;;;;;;9.27;2.13;;;7.30;99.90;;;;;;4996245;28;20060;-82
2023/10/16 04:26:57;;;;;;;9.57;2.42;;;6.90;99.90;;;;;;4986669;28;20111;-83
2023/10/16 04:29:34;;;;;;;10.25;2.13;;;6.70;99.90;;;;;;4992768;28;20157;-80
2023/10/16 04:32:20;;;;;;;10.27;2.13;;;6.70;99.90;;;;;;4986574;28;20061;-87
2023/10/16 04:35:02;;;;;;;8.00;2.35;;;6.80;99.90;;;;;;4996209;28;20263;-87
2023/10/16 04:37:40;;;;;;;6.93;2.28;;;6.50;99.90;;;;;;4998877;28;20725;-87
2023/10/16 04:42:49;;;;;;;12.25;2.50;;;6.70;99.90;;;;;;4997707;28;20161;-87
2023/10/16 05:06:15;;;;;;;8.98;2.75;;;8.90;99.90;;;;;;5002689;28;20096;-85
2023/10/16 06:14:50;;;;;;;13.63;3.13;;;6.60;99.90;;;;;;5000763;28;20053;-82
2023/10/16 06:17:16;;;;;;;13.88;3.38;;;6.70;99.90;;;;;;5023034;28;20107;-85
2023/10/16 06:19:42;;;;;;;12.40;3.53;;;6.70;99.90;;;;;;5020857;28;20077;-84
2023/10/16 06:22:09;;;;;;;14.70;4.57;;;8.20;99.90;;;;;;5000250;28;20374;-83
2023/10/16 06:24:44;;;;;;;12.68;3.20;;;6.70;99.90;;;;;;5021048;28;20408;-82
2023/10/16 06:27:10;;;;;;;9.38;2.70;;;6.80;99.90;;;;;;5001741;28;20059;-81
2023/10/16 06:29:49;;;;;;;13.80;3.10;;;8.70;99.90;;;;;;5002666;28;20091;-87
2023/10/16 06:32:19;;;;;;;12.63;3.60;;;6.80;99.90;;;;;;4979030;28;20129;-84
2023/10/16 06:35:01;;;;;;;13.02;3.40;;;8.30;99.90;;;;;;4990372;28;20096;-86
2023/10/16 06:37:34;;;;;;;7.95;3.05;;;6.80;99.90;;;;;;4993491;28;20409;-86
2023/10/16 06:40:09;;;;;;;14.02;3.03;;;7.30;99.90;;;;;;4994874;28;20050;-85
2023/10/16 06:42:35;;;;;;;13.50;3.65;;;6.90;99.90;;;;;;4998854;28;20095;-83
2023/10/16 06:45:07;;;;;;;12.52;3.78;;;6.70;99.90;;;;;;5000498;28;20049;-81
2023/10/16 06:47:36;;;;;;;14.50;3.38;;;7.10;99.90;;;;;;5001136;28;20045;-82
2023/10/16 06:52:51;;;;;;;10.25;3.42;;;7.00;99.90;;;;;;4960721;28;20049;-84
2023/10/16 06:55:17;;;;;;;10.48;3.20;;;10.00;99.90;;;;;;4997238;28;20049;-87
2023/10/16 06:57:46;;;;;;;13.20;3.55;;;8.60;99.90;;;;;;5000063;28;20633;-83
2023/10/16 07:02:54;;;;;;;17.75;4.13;;;7.30;99.90;;;;;;5002294;28;20053;-89
2023/10/16 07:05:24;;;;;;;12.98;3.35;;;7.40;99.90;;;;;;5013702;28;20041;-84
2023/10/16 07:07:52;;;;;;;12.10;3.58;;;7.60;99.90;;;;;;4997262;28;20041;-85
2023/10/16 07:10:18;;;;;;;9.90;3.40;;;7.70;99.90;;;;;;5000138;28;20049;-87
2023/10/16 07:12:58;;;;;;;10.65;3.80;;;8.60;99.90;;;;;;4992147;28;20046;-83
2023/10/16 07:15:26;;;;;;;13.98;3.00;;;8.00;99.90;;;;;;4995722;28;20425;-84
2023/10/16 07:17:52;;;;;;;9.95;2.72;;;8.20;99.90;;;;;;4981914;28;20061;-83
2023/10/16 07:20:26;;;;;;;13.20;2.85;;;8.10;99.90;;;;;;5000711;28;20050;-83
2023/10/16 07:22:56;;;;;;;10.93;3.28;;;8.20;99.90;;;;;;5012735;28;20049;-84
2023/10/16 07:25:29;;;;;;;8.45;2.53;;;8.90;99.90;;;;;;4999294;28;20045;-82
2023/10/16 07:27:58;;;;;;;9.50;2.33;;;8.30;99.90;;;;;;4999574;28;20054;-81
2023/10/16 07:30:27;;;;;;;8.32;1.92;;;7.20;99.90;;;;;;4994417;28;20052;-80
2023/10/16 07:32:55;;;;;;;8.20;2.47;;;8.70;99.90;;;;;;4995502;28;20769;-79
2023/10/16 07:35:21;;;;;;;10.30;3.15;;;8.50;99.90;;;;;;4999929;28;20558;-83
2023/10/16 07:37:53;;;;;;;10.45;2.47;;;6.50;99.90;;;;;;4989159;28;20559;-80
2023/10/16 07:40:39;;;;;;;6.60;2.50;;;8.50;99.90;;;;;;4984573;28;20054;-85
2023/10/16 07:43:08;;;;;;;7.47;2.63;;;8.50;99.90;;;;;;4987830;28;20085;-84
2023/10/16 07:45:34;;;;;;;13.70;3.17;;;8.40;99.90;;;;;;4982629;28;20060;-86
2023/10/16 07:48:20;;;;;;;8.85;2.42;;;8.30;99.90;;;;;;4989284;28;20097;-81
2023/10/16 07:50:50;;;;;;;9.60;2.08;;;8.40;99.90;;;;;;4995824;28;20061;-83
2023/10/16 07:53:19;;;;;;;5.43;1.98;;;8.30;99.90;;;;;;4980109;28;20061;-85
2023/10/16 07:55:52;;;;;;;11.10;1.80;;;8.30;99.90;;;;;;4990580;28;20061;-81
2023/10/16 07:58:23;;;;;;;5.78;1.90;;;5.50;99.90;;;;;;4986825;28;20050;-84
2023/10/16 08:01:32;;;;;;;6.65;1.88;;;7.60;99.90;;;;;;4989124;28;20053;-86
2023/10/16 08:03:48;;;;;;;10.25;2.28;;;8.70;99.90;;;;;;4989629;28;20053;-83
2023/10/16 08:06:23;;;;;;;9.73;2.75;;;8.90;99.90;;;;;;4985669;28;20648;-85
2023/10/16 08:09:29;;;;;;;9.55;2.10;;;9.50;99.90;;;;;;4995036;28;20056;-82
2023/10/16 08:11:43;;;;;;;8.70;2.83;;;11.30;99.90;;;;;;4983665;28;20080;-85
2023/10/16 08:14:09;;;;;;;9.45;2.05;;;9.20;99.90;;;;;;4997075;28;20140;-82
2023/10/16 08:16:38;;;;;;;10.90;2.55;;;9.30;99.90;;;;;;4989612;28;20184;-83
2023/10/16 08:19:24;;;;;;;6.50;1.80;;;9.30;99.90;;;;;;4980333;28;20052;-84
2023/10/16 08:21:50;;;;;;;7.72;2.10;;;9.30;99.90;;;;;;4985895;28;20391;-83
2023/10/16 08:24:21;;;;;;;5.40;1.67;;;9.30;99.90;;;;;;4986722;28;20054;-79
2023/10/16 08:26:48;;;;;;;9.20;1.98;;;9.40;99.90;;;;;;4996004;28;20038;-81
2023/10/16 08:31:47;;;;;;;7.45;2.05;;;9.60;99.90;;;;;;4981111;28;20134;-81
2023/10/16 08:34:19;;;;;;;9.73;1.83;;;9.80;99.90;;;;;;4988587;28;20048;-84
2023/10/16 08:36:52;;;;;;;8.20;1.33;;;10.30;99.90;;;;;;4972460;28;20103;-79
2023/10/16 08:39:21;;;;;;;7.90;1.50;;;11.10;99.90;;;;;;4986988;28;20118;-80
2023/10/16 08:42:01;;;;;;;8.07;1.92;;;10.20;99.90;;;;;;4971780;28;20669;-82
2023/10/16 08:48:25;;;;;;;4.65;1.35;;;10.40;99.90;;;;;;4984833;28;20104;-83
2023/10/16 08:50:57;;;;;;;7.05;1.35;;;10.60;99.90;;;;;;4997046;28;20112;-81
2023/10/16 08:53:59;;;;;;;10.30;1.08;;;10.60;99.90;;;;;;4991638;28;20068;-81
2023/10/16 08:56:53;;;;;;;7.72;1.08;;;10.50;99.90;;;;;;4947313;28;20054;-77
2023/10/16 08:59:57;;;;;;;7.72;1.05;;;10.50;99.90;;;;;;4970744;28;20056;-81
2023/10/16 09:02:34;;;;;;;7.88;2.00;;;10.50;99.90;;;;;;4956686;28;20109;-80
2023/10/16 09:05:08;;;;;;;7.13;1.40;;;10.50;99.90;;;;;;4966426;28;20528;-79
2023/10/16 09:08:14;;;;;;;9.10;1.10;;;10.60;99.90;;;;;;4965666;28;20441;-81
2023/10/16 09:13:54;;;;;;;7.00;0.80;;;10.60;99.90;;;;;;4882022;28;20058;-82
2023/10/16 09:16:55;;;;;;;7.72;0.50;;;10.70;99.90;;;;;;4905823;28;20062;-83
2023/10/16 09:19:45;;;;;;;4.80;0.45;;;10.80;99.90;;;;;;4885537;28;20585;-84
2023/10/16 09:22:33;;;;;;;6.28;0.50;;;10.90;99.90;;;;;;4919629;28;20089;-79
2023/10/16 09:25:26;;;;;;;8.02;0.75;;;10.90;99.90;;;;;;4905452;28;20058;-82
2023/10/16 09:32:45;;;;;;;6.75;0.90;;;11.00;99.90;;;;;;4928934;28;20139;-83
2023/10/16 09:35:46;;;;;;;7.85;1.45;;;11.20;99.90;;;;;;4929244;28;22313;-80
2023/10/16 09:38:42;;;;;;;8.48;1.58;;;11.40;99.90;;;;;;4907812;28;21754;-80
2023/10/16 09:41:59;;;;;;;9.63;2.05;;;11.60;99.90;;;;;;4899322;28;20230;-78
2023/10/16 09:55:44;;;;;;;4.75;0.38;;;12.00;99.90;;;;;;4857347;29;20368;-83
2023/10/16 09:58:18;;;;;;;6.15;0.70;;;12.10;99.90;;;;;;4861000;29;20606;-83
2023/10/16 10:00:46;;;;;;;3.10;0.60;;;10.90;99.90;;;;;;4834258;29;20060;-82
2023/10/16 10:03:19;;;;;;;8.00;1.27;;;12.30;99.90;;;;;;4838932;29;20583;-83
2023/10/16 10:08:53;;;;;;;5.95;0.40;;;12.40;99.90;;;;;;4841416;29;20060;-77
2023/10/16 10:11:44;;;;;;;5.90;0.40;;;12.40;99.90;;;;;;4854080;29;20088;-78
2023/10/16 10:16:57;;;;;;;3.80;0.30;;;12.30;99.90;;;;;;4860402;29;20056;-80
2023/10/16 10:19:35;;;;;;;4.57;0.30;;;12.20;99.90;;;;;;4865955;29;20064;-82
2023/10/16 10:25:17;;;;;;;4.85;0.60;;;12.10;99.90;;;;;;4863654;29;20118;-81
2023/10/16 10:27:49;;;;;;;4.20;0.30;;;12.10;99.90;;;;;;4825095;29;20241;-79
2023/10/16 10:30:19;;;;;;;5.40;0.28;;;12.10;99.90;;;;;;4860362;29;20051;-82
2023/10/16 10:33:00;;;;;;;3.47;0.30;;;12.10;99.90;;;;;;4841933;29;20107;-78
2023/10/16 10:35:43;;;;;;;8.90;0.30;;;12.10;99.90;;;;;;4846326;29;20048;-83
2023/10/16 10:38:29;;;;;;;8.43;0.95;;;12.10;99.90;;;;;;4842645;29;20519;-79
2023/10/16 10:41:17;;;;;;;2.22;0.40;;;12.20;99.90;;;;;;4850857;28;20060;-83
2023/10/16 10:44:03;;;;;;;4.85;0.40;;;12.40;99.90;;;;;;4841853;29;20186;-82
2023/10/16 10:46:35;;;;;;;2.75;0.73;;;12.40;99.90;;;;;;4840236;29;20052;-82
2023/10/16 10:49:03;;;;;;;6.07;0.30;;;12.60;99.90;;;;;;4845267;29;20063;-79
2023/10/16 10:51:35;;;;;;;3.20;0.60;;;12.70;99.90;;;;;;4840218;29;20587;-81
2023/10/16 10:54:06;;;;;;;10.68;0.40;;;15.60;99.90;;;;;;4861205;29;20060;-80
2023/10/16 10:56:48;;;;;;;2.00;0.30;;;12.80;99.90;;;;;;4837673;29;21074;-80
2023/10/16 10:59:47;;;;;;;7.30;0.70;;;12.90;99.90;;;;;;4841837;29;20257;-81
2023/10/16 11:04:58;;;;;;;4.93;0.40;;;13.00;99.90;;;;;;4855479;29;20051;-81
2023/10/16 11:08:17;;;;;;;4.13;0.65;;;13.00;99.90;;;;;;4854980;29;20714;-78
2023/10/16 11:10:44;;;;;;;4.20;0.50;;;13.00;99.90;;;;;;4845076;29;20932;-81
2023/10/16 11:13:12;;;;;;;8.75;0.52;;;13.00;99.90;;;;;;4860945;29;20056;-81
2023/10/16 11:15:58;;;;;;;3.55;0.30;;;13.00;99.90;;;;;;4867893;29;20080;-80
2023/10/16 11:18:29;;;;;;;4.30;1.02;;;13.00;99.90;;;;;;4835574;29;20060;-82
2023/10/16 11:21:05;;;;;;;5.90;0.40;;;13.00;99.90;;;;;;4850986;29;20171;-78
2023/10/16 11:23:38;;;;;;;9.07;2.05;;;12.90;99.90;;;;;;4828915;29;20586;-83
2023/10/16 11:26:06;;;;;;;6.40;0.43;;;12.90;99.90;;;;;;4842705;29;20056;-84
2023/10/16 11:28:32;;;;;;;6.72;0.30;;;12.90;99.90;;;;;;4827962;29;20402;-80
2023/10/16 11:31:00;;;;;;;5.80;0.40;;;13.00;99.90;;;;;;4843480;29;20546;-75
2023/10/16 11:33:34;;;;;;;3.80;0.75;;;13.00;99.90;;;;;;4811993;29;20055;-81
2023/10/16 11:36:06;;;;;;;5.90;0.63;;;13.10;99.90;;;;;;4846693;29;20552;-80
2023/10/16 11:38:34;;;;;;;2.93;0.30;;;13.10;99.90;;;;;;4820484;29;20289;-77
2023/10/16 11:41:24;;;;;;;5.60;0.30;;;13.10;99.90;;;;;;4818030;29;20728;-80
2023/10/16 11:43:51;;;;;;;7.82;0.90;;;13.10;99.90;;;;;;4840799;29;20174;-79
2023/10/16 11:46:44;;;;;;;8.32;0.55;;;13.10;99.90;;;;;;4830133;29;20056;-78
2023/10/16 11:52:08;;;;;;;3.90;0.40;;;13.10;99.90;;;;;;4844395;29;20048;-80
2023/10/16 11:54:45;;;;;;;8.07;0.73;;;13.10;99.90;;;;;;4819743;29;20064;-82
2023/10/16 11:57:21;;;;;;;5.38;0.68;;;13.10;99.90;;;;;;4816966;29;20053;-81
2023/10/16 11:59:51;;;;;;;2.90;0.50;;;14.80;99.90;;;;;;4853681;29;20064;-75
2023/10/16 12:02:41;;;;;;;4.65;0.20;;;13.10;99.90;;;;;;4810842;29;20056;-81
2023/10/16 12:05:20;;;;;;;4.38;0.35;;;13.10;99.90;;;;;;4828094;29;20064;-77
2023/10/16 12:07:48;;;;;;;4.82;0.30;;;13.10;99.90;;;;;;4838426;29;20261;-79
2023/10/16 12:10:22;;;;;;;8.77;0.30;;;13.20;99.90;;;;;;4824414;29;20139;-83
2023/10/16 12:12:58;;;;;;;2.95;0.30;;;13.20;99.90;;;;;;4823590;29;21083;-84
2023/10/16 12:15:27;;;;;;;7.47;1.00;;;13.30;99.90;;;;;;4839141;29;20167;-84
2023/10/16 12:18:00;;;;;;;8.60;0.32;;;13.30;99.90;;;;;;4815860;29;20052;-78
2023/10/16 12:20:37;;;;;;;9.20;0.73;;;13.20;99.90;;;;;;4830568;29;20092;-81
2023/10/16 12:23:08;;;;;;;4.10;0.73;;;13.20;99.90;;;;;;4857978;29;20059;-81
2023/10/16 12:25:35;;;;;;;8.52;0.57;;;13.20;99.90;;;;;;4823544;29;20066;-80
2023/10/16 12:28:08;;;;;;;3.67;1.20;;;13.20;99.90;;;;;;4827938;29;20064;-80
2023/10/16 12:30:42;;;;;;;5.28;0.30;;;13.20;99.90;;;;;;4830577;29;20168;-78
2023/10/16 12:33:42;;;;;;;5.90;0.40;;;13.10;99.90;;;;;;4829016;29;20402;-79
2023/10/16 12:36:11;;;;;;;4.47;0.40;;;13.10;99.90;;;;;;4851166;29;20052;-80
2023/10/16 12:38:38;;;;;;;4.72;0.50;;;13.10;99.90;;;;;;4822318;29;20148;-78
2023/10/16 12:41:08;;;;;;;7.20;0.60;;;13.10;99.90;;;;;;4825991;29;20064;-78
2023/10/16 12:43:50;;;;;;;4.90;0.60;;;13.10;99.90;;;;;;4814226;29;21315;-81
2023/10/16 12:46:19;;;;;;;5.90;0.38;;;13.10;99.90;;;;;;4834065;29;20836;-80
2023/10/16 12:49:07;;;;;;;8.63;0.63;;;13.10;99.90;;;;;;4842534;29;20102;-80
2023/10/16 12:51:40;;;;;;;8.05;0.50;;;11.10;99.90;;;;;;4848067;29;20874;-76
2023/10/16 12:54:15;;;;;;;6.13;0.40;;;13.20;99.90;;;;;;4845541;29;20128;-81
2023/10/16 12:56:48;;;;;;;;;;;13.20;99.90;;;;;;4838391;29;20556;-75
2023/10/16 12:59:21;;;;;;;5.47;0.50;;;13.10;99.90;;;;;;4825312;29;19931;-76
2023/10/16 13:01:49;;;;;;;6.93;0.68;;;15.40;99.90;;;;;;4853843;29;20096;-79
2023/10/16 13:04:18;;;;;;;5.55;0.60;;;13.10;99.90;;;;;;4846928;29;20140;-75
2023/10/16 13:07:03;;;;;;;4.28;0.40;;;13.10;99.90;;;;;;4840061;29;20287;-78
2023/10/16 13:09:40;;;;;;;10.02;0.82;;;13.10;99.90;;;;;;4836680;29;20092;-74
2023/10/16 13:12:09;;;;;;;2.72;0.25;;;13.10;99.90;;;;;;4839231;29;20721;-75
2023/10/16 13:14:39;;;;;;;2.25;0.38;;;13.10;99.90;;;;;;4851048;29;20057;-73
2023/10/16 13:17:08;;;;;;;2.33;0.40;;;13.10;99.90;;;;;;4847296;29;20818;-77
2023/10/16 13:19:47;;;;;;;4.72;0.73;;;12.60;99.90;;;;;;4847717;29;20056;-78
2023/10/16 13:22:20;;;;;;;2.70;0.98;;;13.10;99.90;;;;;;4841585;29;20066;-79
2023/10/16 13:25:11;;;;;;;5.82;0.40;;;13.00;99.90;;;;;;4845869;29;20091;-76
2023/10/16 13:27:51;;;;;;;4.25;0.30;;;13.00;99.90;;;;;;4831081;29;20111;-79
2023/10/16 13:30:44;;;;;;;6.90;0.32;;;12.90;99.90;;;;;;4818075;29;20091;-75
2023/10/16 13:33:21;;;;;;;4.00;0.30;;;12.80;99.90;;;;;;4844218;29;20052;-82
2023/10/16 13:35:57;;;;;;;9.30;0.80;;;12.80;99.90;;;;;;4845088;29;21499;-81
2023/10/16 13:38:31;;;;;;;6.45;0.40;;;12.80;99.90;;;;;;4822302;29;20454;-79
2023/10/16 13:41:17;;;;;;;3.35;0.50;;;14.00;99.90;;;;;;4835198;29;20064;-81
2023/10/16 13:43:55;;;;;;;9.15;0.55;;;12.70;99.90;;;;;;4829892;29;20156;-81
2023/10/16 13:46:35;;;;;;;4.85;0.30;;;12.70;99.90;;;;;;4804726;29;20076;-81
2023/10/16 13:49:18;;;;;;;9.23;0.60;;;12.70;99.90;;;;;;4824118;29;20519;-78
2023/10/16 13:51:52;;;;;;;6.05;0.45;;;12.70;99.90;;;;;;4806331;29;20356;-75
2023/10/16 13:54:31;;;;;;;3.20;0.38;;;12.70;99.90;;;;;;4840308;29;20060;-75
2023/10/16 13:57:02;;;;;;;3.90;0.47;;;12.70;99.90;;;;;;4820060;29;20087;-74
2023/10/16 13:59:29;;;;;;;5.38;0.40;;;13.60;99.90;;;;;;4849312;29;20056;-75
2023/10/16 14:01:58;;;;;;;6.13;0.60;;;12.70;99.90;;;;;;4817552;29;20057;-73
2023/10/16 14:04:33;;;;;;;6.30;0.47;;;12.70;99.90;;;;;;4838430;29;20087;-75
2023/10/16 14:07:08;;;;;;;4.60;0.40;;;12.70;99.90;;;;;;4821305;29;20204;-78
2023/10/16 14:09:35;;;;;;;6.60;1.25;;;12.70;99.90;;;;;;4842155;29;20118;-78
2023/10/16 14:12:04;;;;;;;5.13;0.28;;;12.60;99.90;;;;;;4851010;29;20072;-78
2023/10/16 14:14:39;;;;;;;9.57;0.77;;;12.60;99.90;;;;;;4837045;29;20833;-77
2023/10/16 14:17:16;;;;;;;4.68;0.47;;;12.60;99.90;;;;;;4851211;29;20068;-76
2023/10/16 14:19:50;;;;;;;5.07;0.38;;;12.60;99.90;;;;;;4833443;29;20064;-76
2023/10/16 14:22:23;;;;;;;4.57;0.30;;;12.50;99.90;;;;;;4849854;29;20128;-76
2023/10/16 14:24:56;;;;;;;5.47;0.80;;;12.40;99.90;;;;;;4832091;29;20044;-79
2023/10/16 14:27:24;;;;;;;4.55;0.30;;;12.30;99.90;;;;;;4830261;29;21614;-78
2023/10/16 14:29:58;;;;;;;5.63;0.30;;;12.30;99.90;;;;;;4823111;29;20063;-80
2023/10/16 14:32:34;;;;;;;4.03;0.50;;;12.20;99.90;;;;;;4847695;29;21545;-82
2023/10/16 14:35:08;;;;;;;9.55;0.50;;;12.20;99.90;;;;;;4824165;29;20068;-79
2023/10/16 14:37:41;;;;;;;3.28;0.22;;;12.10;99.90;;;;;;4819749;29;20071;-78
2023/10/16 14:40:15;;;;;;;3.72;0.30;;;12.10;99.90;;;;;;4838967;29;20888;-80
2023/10/16 14:42:44;;;;;;;4.97;0.30;;;12.10;99.90;;;;;;4841207;29;20132;-79
2023/10/16 14:45:23;;;;;;;2.60;0.20;;;12.00;99.90;;;;;;4832790;29;20938;-75
2023/10/16 14:47:54;;;;;;;;;;;12.20;99.90;;;;;;4822432;29;21485;-75
2023/10/16 14:50:24;;;;;;;6.13;0.32;;;11.90;99.90;;;;;;4823150;29;19949;-80
2023/10/16 14:52:52;;;;;;;7.32;1.00;;;11.90;99.90;;;;;;4840963;29;20100;-76
2023/10/16 14:55:32;;;;;;;2.88;0.20;;;11.90;99.90;;;;;;4831986;29;20139;-77
2023/10/16 14:58:00;;;;;;;7.35;0.38;;;11.90;99.90;;;;;;4831789;29;20065;-76
2023/10/16 15:00:32;;;;;;;4.43;0.17;;;11.80;99.90;;;;;;4856177;29;20056;-77
2023/10/16 15:03:03;;;;;;;5.80;0.30;;;11.80;99.90;;;;;;4843951;29;20061;-74
2023/10/16 15:05:53;;;;;;;7.22;0.60;;;11.80;99.90;;;;;;4823399;29;20064;-79
2023/10/16 15:08:27;;;;;;;4.28;0.40;;;11.80;99.90;;;;;;4845182;29;20075;-80
2023/10/16 15:10:55;;;;;;;2.92;0.50;;;11.80;99.90;;;;;;4829352;29;20084;-75
2023/10/16 15:13:27;;;;;;;6.22;0.25;;;11.70;99.90;;;;;;4829431;29;20760;-73
2023/10/16 15:16:07;;;;;;;5.35;0.20;;;11.70;99.90;;;;;;4820344;29;20059;-77
2023/10/16 15:18:38;;;;;;;4.70;0.30;;;11.70;99.90;;;;;;4841061;29;20056;-78
2023/10/16 15:21:15;;;;;;;4.97;0.50;;;11.60;99.90;;;;;;4826671;29;20129;-75
2023/10/16 15:23:45;;;;;;;4.15;0.45;;;11.50;99.90;;;;;;4865420;29;20131;-75
2023/10/16 15:26:11;;;;;;;3.40;0.28;;;11.40;99.90;;;;;;4830868;29;20600;-73
2023/10/16 15:28:41;;;;;;;4.32;0.35;;;11.30;99.90;;;;;;4849807;29;20635;-77
2023/10/16 15:31:09;;;;;;;4.57;0.20;;;11.30;99.90;;;;;;4828050;29;20106;-77
2023/10/16 15:33:35;;;;;;;4.32;0.25;;;11.20;99.90;;;;;;4833591;29;21107;-76
2023/10/16 15:36:06;;;;;;;8.05;0.40;;;11.20;99.90;;;;;;4827163;29;21099;-77
2023/10/16 15:38:37;;;;;;;10.20;0.57;;;11.10;99.90;;;;;;4813614;29;20068;-78
2023/10/16 15:41:09;;;;;;;4.55;0.40;;;11.00;99.90;;;;;;4825729;29;21010;-75
2023/10/16 15:43:35;;;;;;;5.05;0.40;;;10.90;99.90;;;;;;4831581;29;20108;-74
2023/10/16 15:46:03;;;;;;;3.03;0.20;;;10.80;99.90;;;;;;4805304;29;20972;-76
2023/10/16 15:48:29;;;;;;;2.20;0.65;;;10.80;99.90;;;;;;4835536;29;20088;-77